Terminal Aerodrome Forecast
Issued by NWS

Home | Current Version | Previous Version | Text Only | Print | Product List | Glossary On
Versions: 1 2 3 4 5 6 7 8 9 10 11 12 13 14 15 16 17 18 19 20 21 22 23 24 25 26 27
000
FTUS41 KRNK 010341 AAC
TAFBCB
TAF AMD
KBCB 010341Z 0104/0124 00000KT P6SM -RA OVC005
      TEMPO 0105/0107 3SM RA BR BKN003 OVC015
     FM010900 10004KT 4SM -RA BR OVC005 WS020/18035KT
     FM011300 24005KT 4SM -RA BR OVC008
     FM011700 24005KT 6SM -SHRA OVC015
     FM012200 24005KT P6SM SCT020 BKN100=

USA.gov is the U.S. government's official web portal to all federal, state and local government web resources and services.